createdAt,value
2022-11-28T00:01:18.411Z,4.60
2022-11-28T00:03:45.896Z,4.80
2022-11-28T00:06:13.399Z,4.73
2022-11-28T00:08:42.373Z,4.47
2022-11-28T00:11:11.681Z,4.90
2022-11-28T00:13:39.111Z,4.27
2022-11-28T00:16:07.837Z,4.60
2022-11-28T00:18:35.548Z,4.43
2022-11-28T00:21:03.145Z,4.60
2022-11-28T00:23:30.603Z,4.37
2022-11-28T00:26:00.238Z,4.37
2022-11-28T00:28:27.877Z,4.87
2022-11-28T00:30:55.397Z,4.70
2022-11-28T00:33:22.836Z,4.57
2022-11-28T00:35:50.386Z,4.93
2022-11-28T00:38:17.888Z,4.73
2022-11-28T00:40:45.293Z,4.67
2022-11-28T00:43:14.092Z,4.93
2022-11-28T00:45:41.547Z,5.13
2022-11-28T00:48:08.953Z,4.73
2022-11-28T00:50:36.365Z,5.00
2022-11-28T00:53:03.760Z,5.63
2022-11-28T00:55:31.152Z,4.77
2022-11-28T00:57:58.587Z,5.30
2022-11-28T01:00:27.431Z,5.20
2022-11-28T01:02:54.843Z,5.43
2022-11-28T01:05:22.256Z,5.37
2022-11-28T01:07:49.684Z,5.63
2022-11-28T01:10:17.376Z,6.30
2022-11-28T01:12:44.787Z,5.40
2022-11-28T01:15:12.818Z,6.27
2022-11-28T01:17:41.589Z,4.70
2022-11-28T01:20:09.637Z,5.53
2022-11-28T01:22:38.103Z,5.70
2022-11-28T01:25:05.785Z,5.10
2022-11-28T01:27:34.227Z,5.40
2022-11-28T01:30:01.645Z,5.17
2022-11-28T01:32:29.052Z,4.93
2022-11-28T01:34:57.860Z,5.27
2022-11-28T01:37:25.270Z,4.87
2022-11-28T01:39:52.661Z,4.93
2022-11-28T01:42:20.678Z,4.80
2022-11-28T01:45:06.698Z,5.03
2022-11-28T01:47:34.842Z,4.73
2022-11-28T01:50:03.893Z,4.97
2022-11-28T01:52:31.372Z,4.40
2022-11-28T01:55:01.089Z,4.90
2022-11-28T01:57:29.051Z,4.87
2022-11-28T01:59:58.599Z,5.10
2022-11-28T02:02:27.961Z,5.33
2022-11-28T02:04:55.569Z,4.77
2022-11-28T02:07:24.678Z,5.10
2022-11-28T02:09:52.135Z,5.07
2022-11-28T02:12:23.231Z,5.13
2022-11-28T02:15:02.004Z,5.10
2022-11-28T02:17:34.874Z,5.20
2022-11-28T02:20:14.106Z,5.47
2022-11-28T02:22:45.118Z,5.50
2022-11-28T02:25:32.749Z,5.50
2022-11-28T02:28:10.822Z,4.70
2022-11-28T02:30:43.291Z,5.90
2022-11-28T02:33:15.538Z,5.63
2022-11-28T02:35:46.333Z,5.27
2022-11-28T02:38:18.189Z,5.73
2022-11-28T02:40:50.593Z,4.90
2022-11-28T02:43:21.366Z,5.87
2022-11-28T02:45:51.247Z,5.63
2022-11-28T02:48:26.493Z,5.90
2022-11-28T02:50:56.458Z,6.13
2022-11-28T02:53:25.486Z,5.50
2022-11-28T02:55:53.402Z,5.93
2022-11-28T02:58:20.788Z,5.40
2022-11-28T03:00:48.527Z,5.07
2022-11-28T03:03:34.695Z,4.77
2022-11-28T03:06:08.197Z,5.20
2022-11-28T03:08:54.815Z,5.57
2022-11-28T03:11:24.918Z,5.10
2022-11-28T03:13:54.612Z,5.60
2022-11-28T03:16:26.626Z,5.20
2022-11-28T03:19:00.536Z,6.17
2022-11-28T03:21:34.111Z,5.33
2022-11-28T03:24:03.897Z,5.57
2022-11-28T03:26:36.626Z,5.77
2022-11-28T03:29:07.797Z,5.87
2022-11-28T03:31:37.501Z,5.20
2022-11-28T03:34:06.770Z,5.50
2022-11-28T03:36:39.959Z,6.07
2022-11-28T03:39:09.890Z,5.77
2022-11-28T03:41:39.407Z,5.60
2022-11-28T03:44:09.085Z,5.57
2022-11-28T03:46:38.365Z,5.60
2022-11-28T03:49:07.525Z,5.37
2022-11-28T03:51:37.745Z,5.53
2022-11-28T03:54:07.714Z,4.87
2022-11-28T03:56:37.878Z,6.00
2022-11-28T03:59:08.508Z,5.60
2022-11-28T04:01:41.280Z,5.77
2022-11-28T04:04:13.371Z,5.47
2022-11-28T04:06:49.650Z,5.90
2022-11-28T04:09:19.466Z,6.40
2022-11-28T04:11:48.846Z,5.50
2022-11-28T04:14:20.319Z,6.60
2022-11-28T04:16:53.964Z,5.30
2022-11-28T04:19:24.426Z,6.30
2022-11-28T04:21:55.464Z,6.13
2022-11-28T04:24:24.888Z,6.37
2022-11-28T04:26:54.840Z,6.17
2022-11-28T04:29:24.389Z,5.93
2022-11-28T04:31:54.908Z,6.23
2022-11-28T04:34:24.445Z,6.57
2022-11-28T04:36:54.266Z,6.53
2022-11-28T04:39:22.920Z,5.67
2022-11-28T04:41:54.545Z,6.37
2022-11-28T04:44:24.244Z,6.17
2022-11-28T04:46:53.047Z,6.37
2022-11-28T04:49:20.492Z,5.80
2022-11-28T04:51:51.397Z,5.37
2022-11-28T04:54:23.847Z,5.77
2022-11-28T04:56:54.242Z,5.47
2022-11-28T04:59:23.074Z,5.80
2022-11-28T05:01:51.161Z,6.07
2022-11-28T05:04:19.083Z,5.83
2022-11-28T05:06:46.513Z,6.33
2022-11-28T05:09:14.176Z,6.00
2022-11-28T05:11:42.946Z,5.70
2022-11-28T05:14:10.425Z,5.30
2022-11-28T05:16:37.944Z,5.63
2022-11-28T05:19:05.415Z,5.17
2022-11-28T05:21:32.878Z,6.07
2022-11-28T05:24:00.265Z,6.27
2022-11-28T05:26:27.891Z,6.37
2022-11-28T05:28:57.735Z,6.33
2022-11-28T05:31:25.483Z,6.40
2022-11-28T05:33:52.910Z,6.50
2022-11-28T05:36:20.912Z,5.87
2022-11-28T05:38:48.386Z,6.20
2022-11-28T05:41:19.587Z,6.67
2022-11-28T05:43:47.047Z,5.73
2022-11-28T05:46:15.883Z,5.37
2022-11-28T05:48:43.727Z,6.13
2022-11-28T05:51:11.406Z,5.47
2022-11-28T05:53:38.894Z,5.73
2022-11-28T05:56:10.177Z,6.10
2022-11-28T05:58:37.741Z,6.17
2022-11-28T06:01:12.032Z,6.47
2022-11-28T06:03:40.778Z,6.30
2022-11-28T06:06:11.942Z,6.80
2022-11-28T06:08:39.323Z,6.23
2022-11-28T06:11:06.961Z,5.93
2022-11-28T06:13:34.351Z,6.17
2022-11-28T06:16:01.842Z,5.70
2022-11-28T06:18:29.294Z,5.77
2022-11-28T06:20:58.089Z,6.20
2022-11-28T06:23:25.490Z,6.47
2022-11-28T06:25:52.883Z,5.83
2022-11-28T06:28:20.326Z,6.10
2022-11-28T06:30:47.731Z,6.10
2022-11-28T06:33:15.133Z,5.80
2022-11-28T06:35:42.545Z,6.47
2022-11-28T06:38:14.192Z,6.40
2022-11-28T06:40:42.023Z,6.17
2022-11-28T06:43:09.444Z,6.60
2022-11-28T06:45:37.146Z,6.47
2022-11-28T06:48:04.629Z,6.23
2022-11-28T06:50:33.155Z,6.53
2022-11-28T06:53:00.544Z,6.40
2022-11-28T06:55:30.248Z,7.00
2022-11-28T06:57:58.689Z,6.67
2022-11-28T07:00:26.209Z,6.93
2022-11-28T07:02:53.626Z,6.20
2022-11-28T07:05:22.855Z,6.47
2022-11-28T07:07:54.122Z,6.77
2022-11-28T07:10:22.573Z,6.70
2022-11-28T07:12:55.477Z,5.57
2022-11-28T07:15:23.250Z,6.30
2022-11-28T07:17:50.824Z,6.10
2022-11-28T07:20:18.932Z,6.30
2022-11-28T07:22:47.677Z,7.13
2022-11-28T07:25:15.966Z,6.77
2022-11-28T07:27:43.445Z,6.03
2022-11-28T07:30:12.558Z,6.90
2022-11-28T07:32:40.303Z,6.43
2022-11-28T07:35:09.005Z,6.90
2022-11-28T07:37:36.897Z,6.63
2022-11-28T07:40:04.514Z,6.67
2022-11-28T07:42:31.925Z,6.37
2022-11-28T07:44:59.520Z,7.00
2022-11-28T07:47:28.239Z,5.77
2022-11-28T07:49:55.731Z,6.50
2022-11-28T07:52:23.193Z,7.07
2022-11-28T07:54:51.038Z,6.60
2022-11-28T07:57:18.516Z,6.73
2022-11-28T07:59:46.060Z,6.17
2022-11-28T08:02:13.661Z,6.27
2022-11-28T08:04:47.751Z,6.40
2022-11-28T08:07:15.967Z,6.27
2022-11-28T08:09:43.656Z,7.10
2022-11-28T08:12:11.282Z,7.67
2022-11-28T08:14:38.742Z,6.53
2022-11-28T08:17:06.263Z,7.87
2022-11-28T08:19:35.474Z,6.67
2022-11-28T08:22:04.316Z,6.50
2022-11-28T08:24:31.731Z,6.87
2022-11-28T08:26:59.140Z,6.67
2022-11-28T08:29:26.592Z,6.40
2022-11-28T08:31:55.173Z,6.80
2022-11-28T08:34:22.927Z,7.00
2022-11-28T08:36:50.319Z,7.10
2022-11-28T08:39:26.495Z,6.80
2022-11-28T08:41:54.245Z,6.80
2022-11-28T08:44:21.692Z,6.87
2022-11-28T08:46:49.291Z,7.13
2022-11-28T08:49:16.927Z,6.40
2022-11-28T08:51:44.357Z,6.80
2022-11-28T08:54:11.851Z,6.80
2022-11-28T08:56:40.599Z,6.27
2022-11-28T08:59:08.121Z,6.80
2022-11-28T09:01:35.582Z,6.10
2022-11-28T09:04:03.082Z,6.40
2022-11-28T09:06:30.495Z,6.80
2022-11-28T09:08:58.839Z,6.80
2022-11-28T09:11:26.606Z,6.70
2022-11-28T09:13:55.789Z,7.23
2022-11-28T09:16:23.275Z,6.50
2022-11-28T09:18:51.751Z,6.77
2022-11-28T09:21:19.163Z,6.70
2022-11-28T09:23:46.762Z,7.30
2022-11-28T09:26:15.101Z,7.17
2022-11-28T09:28:42.525Z,6.60
2022-11-28T09:31:12.315Z,6.23
2022-11-28T09:33:39.855Z,6.80
2022-11-28T09:36:09.047Z,6.70
2022-11-28T09:38:36.513Z,7.10
2022-11-28T09:41:04.471Z,6.60
2022-11-28T09:43:33.898Z,6.70
2022-11-28T09:46:02.351Z,6.40
2022-11-28T09:48:34.755Z,6.90
2022-11-28T09:51:06.302Z,6.63
2022-11-28T09:53:37.734Z,7.17
2022-11-28T09:56:07.469Z,7.00
2022-11-28T09:58:37.907Z,6.53
2022-11-28T10:01:09.155Z,6.50
2022-11-28T10:03:41.585Z,6.60
2022-11-28T10:06:13.791Z,6.57
2022-11-28T10:08:47.468Z,6.57
2022-11-28T10:11:27.342Z,6.43
2022-11-28T10:14:09.135Z,6.63
2022-11-28T10:16:43.362Z,6.47
2022-11-28T10:19:31.560Z,6.40
2022-11-28T10:22:03.323Z,6.10
2022-11-28T10:24:35.309Z,6.83
2022-11-28T10:27:04.611Z,6.97
2022-11-28T10:29:34.196Z,7.13
2022-11-28T10:32:02.689Z,7.10
2022-11-28T10:34:33.228Z,7.37
2022-11-28T10:37:03.738Z,6.90
2022-11-28T10:39:31.169Z,7.40
2022-11-28T10:42:14.017Z,7.50
2022-11-28T10:44:48.268Z,6.33
2022-11-28T10:47:19.064Z,7.47
2022-11-28T10:49:51.711Z,7.10
2022-11-28T10:52:22.296Z,6.50
2022-11-28T10:55:00.709Z,6.30
2022-11-28T10:57:30.310Z,7.07
2022-11-28T11:00:03.897Z,6.87
2022-11-28T11:02:34.736Z,7.30
2022-11-28T11:05:03.999Z,6.70
2022-11-28T11:07:32.413Z,6.97
2022-11-28T11:10:02.830Z,7.30
2022-11-28T11:12:32.771Z,7.30
2022-11-28T11:15:00.191Z,6.90
2022-11-28T11:17:34.215Z,7.20
2022-11-28T11:20:20.303Z,6.77
2022-11-28T11:22:54.863Z,6.73
2022-11-28T11:25:22.384Z,6.63
2022-11-28T11:27:50.708Z,7.30
2022-11-28T11:30:19.847Z,6.87
2022-11-28T11:32:51.416Z,7.37
2022-11-28T11:35:22.695Z,6.77
2022-11-28T11:37:50.119Z,6.80
2022-11-28T11:40:26.152Z,7.07
2022-11-28T11:42:55.075Z,6.97
2022-11-28T11:45:30.943Z,7.40
2022-11-28T11:47:58.716Z,7.13
2022-11-28T11:50:28.332Z,7.53
2022-11-28T11:53:02.666Z,7.30
2022-11-28T11:55:32.645Z,7.17
2022-11-28T11:58:05.424Z,6.73
2022-11-28T12:00:35.910Z,7.10
2022-11-28T12:03:06.216Z,6.93
2022-11-28T12:06:06.191Z,7.23
2022-11-28T12:08:32.602Z,7.17
2022-11-28T12:11:08.000Z,6.93
2022-11-28T12:13:36.213Z,7.00
2022-11-28T12:16:07.606Z,7.00
2022-11-28T12:18:41.059Z,6.87
2022-11-28T12:21:14.330Z,7.20
2022-11-28T12:23:50.892Z,7.67
2022-11-28T12:26:21.841Z,7.00
2022-11-28T12:28:57.759Z,6.60
2022-11-28T12:31:33.727Z,6.97
2022-11-28T12:34:05.468Z,7.17
2022-11-28T12:36:37.587Z,6.70
2022-11-28T12:39:13.393Z,7.10
2022-11-28T12:41:47.340Z,6.43
2022-11-28T12:44:21.173Z,6.57
2022-11-28T12:46:53.734Z,7.27
2022-11-28T12:49:27.055Z,6.83
2022-11-28T12:52:01.427Z,7.77
2022-11-28T12:54:43.736Z,7.37
2022-11-28T12:57:14.905Z,7.83
2022-11-28T12:59:47.639Z,6.43
2022-11-28T13:02:31.008Z,7.53
2022-11-28T13:05:04.529Z,6.90
2022-11-28T13:07:38.301Z,7.53
2022-11-28T13:10:10.185Z,7.27
2022-11-28T13:12:45.720Z,7.50
2022-11-28T13:15:16.941Z,6.90
2022-11-28T13:17:47.875Z,7.27
2022-11-28T13:20:23.140Z,6.97
2022-11-28T13:22:57.934Z,6.70
2022-11-28T13:25:29.126Z,7.43
2022-11-28T13:27:59.789Z,6.43
2022-11-28T13:30:28.122Z,7.40
2022-11-28T13:33:00.741Z,6.90
2022-11-28T13:35:29.062Z,6.50
2022-11-28T13:40:50.092Z,7.23
2022-11-28T13:43:18.892Z,6.93
2022-11-28T13:45:47.060Z,6.17
2022-11-28T13:48:49.848Z,6.57
2022-11-28T13:51:22.803Z,7.27
2022-11-28T13:54:20.436Z,7.37
2022-11-28T13:57:04.086Z,6.97
2022-11-28T13:59:32.141Z,7.00
2022-11-28T14:02:00.819Z,7.20
2022-11-28T14:04:28.903Z,6.63
2022-11-28T14:06:59.538Z,6.83
2022-11-28T14:09:34.965Z,7.23
2022-11-28T14:12:08.098Z,7.27
2022-11-28T14:14:45.694Z,7.07
2022-11-28T14:17:28.848Z,6.90
2022-11-28T14:20:04.500Z,6.73
2022-11-28T14:22:38.887Z,7.50
2022-11-28T14:25:10.204Z,7.57
2022-11-28T14:27:40.135Z,8.57
2022-11-28T14:30:09.383Z,6.50
2022-11-28T14:32:38.826Z,6.80
2022-11-28T14:35:10.165Z,7.53
2022-11-28T14:37:48.572Z,6.60
2022-11-28T14:40:34.504Z,6.80
2022-11-28T14:43:16.787Z,6.90
2022-11-28T14:45:46.007Z,6.17
2022-11-28T14:48:18.823Z,7.50
2022-11-28T14:50:52.431Z,6.60
2022-11-28T14:53:38.890Z,7.27
2022-11-28T14:56:10.414Z,7.07
2022-11-28T14:58:37.838Z,7.53
2022-11-28T15:01:10.569Z,7.13
2022-11-28T15:03:41.581Z,7.37
2022-11-28T15:06:11.652Z,7.03
2022-11-28T15:08:47.517Z,7.07
2022-11-28T15:11:39.168Z,6.93
2022-11-28T15:14:09.794Z,7.77
2022-11-28T15:16:42.826Z,7.67
2022-11-28T15:19:16.507Z,7.33
2022-11-28T15:21:44.987Z,7.83
2022-11-28T15:24:16.145Z,7.80
2022-11-28T15:26:44.667Z,7.20
2022-11-28T15:29:18.861Z,7.30
2022-11-28T15:31:48.956Z,7.77
2022-11-28T15:34:22.620Z,7.40
2022-11-28T15:36:52.152Z,7.97
2022-11-28T15:39:25.685Z,7.27
2022-11-28T15:41:53.182Z,7.10
2022-11-28T15:44:20.627Z,7.67
2022-11-28T15:46:49.554Z,7.43
2022-11-28T15:49:24.204Z,7.57
2022-11-28T15:51:53.092Z,7.80
2022-11-28T15:54:34.596Z,8.30
2022-11-28T15:57:02.718Z,8.83
2022-11-28T15:59:30.190Z,8.23
2022-11-28T16:02:00.816Z,8.03
2022-11-28T16:04:29.197Z,8.13
2022-11-28T16:06:58.911Z,7.50
2022-11-28T16:09:27.739Z,7.27
2022-11-28T16:11:55.428Z,8.03
2022-11-28T16:14:25.015Z,8.27
2022-11-28T16:16:52.602Z,8.13
2022-11-28T16:19:24.220Z,8.50
2022-11-28T16:21:53.305Z,8.23
2022-11-28T16:24:25.725Z,8.97
2022-11-28T16:26:59.659Z,8.20
2022-11-28T16:29:31.841Z,8.47
2022-11-28T16:32:09.197Z,8.40
2022-11-28T16:34:47.882Z,7.97
2022-11-28T16:37:19.848Z,8.60
2022-11-28T16:39:47.527Z,8.80
2022-11-28T16:42:15.894Z,8.73
2022-11-28T16:44:43.641Z,8.80
2022-11-28T16:47:24.731Z,9.10
2022-11-28T16:50:05.243Z,10.27
2022-11-28T16:52:39.982Z,10.60
2022-11-28T16:55:34.824Z,9.40
2022-11-28T16:58:07.080Z,9.90
2022-11-28T17:00:34.535Z,9.53
2022-11-28T17:03:01.951Z,9.23
2022-11-28T17:05:31.910Z,8.70
2022-11-28T17:08:01.356Z,8.60
2022-11-28T17:10:28.786Z,8.20
2022-11-28T17:12:56.168Z,8.37
2022-11-28T17:15:23.625Z,9.80
2022-11-28T17:17:51.171Z,9.30
2022-11-28T17:20:18.742Z,8.47
2022-11-28T17:22:48.567Z,9.30
2022-11-28T17:25:16.935Z,9.00
2022-11-28T17:27:44.572Z,8.80
2022-11-28T17:30:14.124Z,9.50
2022-11-28T17:32:41.519Z,9.90
2022-11-28T17:35:12.108Z,9.10
2022-11-28T17:37:40.070Z,9.43
2022-11-28T17:40:27.491Z,9.27
2022-11-28T17:42:54.905Z,10.07
2022-11-28T17:45:22.906Z,9.33
2022-11-28T17:47:50.308Z,9.77
2022-11-28T17:50:17.792Z,9.97
2022-11-28T17:52:45.347Z,9.70
2022-11-28T17:55:14.203Z,9.87
2022-11-28T17:57:42.776Z,8.33
2022-11-28T18:00:11.563Z,8.87
2022-11-28T18:02:39.042Z,9.80
2022-11-28T18:05:06.882Z,10.63
2022-11-28T18:07:34.286Z,9.67
2022-11-28T18:10:01.680Z,10.13
2022-11-28T18:12:30.520Z,10.80
2022-11-28T18:14:59.479Z,10.77
2022-11-28T18:17:26.907Z,12.40
2022-11-28T18:19:57.515Z,11.07
2022-11-28T18:22:25.344Z,12.13
2022-11-28T18:24:52.717Z,11.17
2022-11-28T18:27:20.127Z,12.30
2022-11-28T18:29:48.887Z,10.87
2022-11-28T18:32:16.297Z,10.73
2022-11-28T18:34:43.698Z,10.70
2022-11-28T18:37:11.090Z,10.37
2022-11-28T18:39:38.484Z,10.27
2022-11-28T18:42:05.993Z,9.80
2022-11-28T18:44:33.730Z,10.77
2022-11-28T18:47:02.679Z,11.07
2022-11-28T18:49:30.147Z,11.20
2022-11-28T18:51:57.602Z,10.30
2022-11-28T18:54:26.732Z,10.20
2022-11-28T18:56:54.134Z,9.47
2022-11-28T18:59:21.625Z,11.40
2022-11-28T19:01:49.142Z,10.57
2022-11-28T19:04:18.161Z,11.23
2022-11-28T19:06:45.626Z,10.90
2022-11-28T19:09:14.144Z,11.67
2022-11-28T19:11:41.823Z,11.00
2022-11-28T19:14:09.690Z,11.57
2022-11-28T19:16:38.003Z,12.27
2022-11-28T19:19:06.467Z,11.33
2022-11-28T19:21:35.989Z,11.40
2022-11-28T19:24:03.794Z,11.47
2022-11-28T19:26:33.429Z,12.43
2022-11-28T19:29:01.122Z,13.60
2022-11-28T19:31:29.508Z,11.43
2022-11-28T19:34:01.344Z,11.57
2022-11-28T19:36:30.396Z,12.10
2022-11-28T19:38:59.169Z,11.33
2022-11-28T19:41:26.605Z,11.20
2022-11-28T19:43:54.058Z,10.97
2022-11-28T19:46:21.542Z,11.70
2022-11-28T19:48:51.197Z,10.77
2022-11-28T19:51:19.266Z,11.27
2022-11-28T19:53:46.686Z,11.80
2022-11-28T19:56:16.433Z,12.07
2022-11-28T19:58:44.227Z,12.67
2022-11-28T20:01:12.451Z,12.37
2022-11-28T20:03:40.615Z,10.83
2022-11-28T20:06:09.153Z,10.63
2022-11-28T20:08:36.627Z,10.83
2022-11-28T20:11:10.796Z,11.80
2022-11-28T20:13:39.598Z,10.30
2022-11-28T20:16:08.780Z,11.03
2022-11-28T20:18:37.276Z,11.20
2022-11-28T20:21:06.157Z,11.37
2022-11-28T20:23:33.721Z,11.03
2022-11-28T20:26:05.165Z,10.40
2022-11-28T20:28:33.876Z,11.13
2022-11-28T20:31:02.947Z,10.57
2022-11-28T20:33:30.509Z,10.43
2022-11-28T20:36:05.558Z,10.93
2022-11-28T20:38:33.161Z,10.80
2022-11-28T20:41:00.997Z,11.93
2022-11-28T20:43:29.873Z,11.13
2022-11-28T20:46:03.836Z,11.13
2022-11-28T20:48:31.367Z,11.17
2022-11-28T20:50:59.076Z,10.60
2022-11-28T20:53:27.144Z,10.33
2022-11-28T20:55:59.753Z,12.73
2022-11-28T20:58:27.236Z,11.63
2022-11-28T21:00:55.809Z,12.33
2022-11-28T21:03:26.167Z,12.60
2022-11-28T21:05:57.950Z,11.90
2022-11-28T21:08:30.368Z,11.77
2022-11-28T21:10:57.885Z,12.47
2022-11-28T21:13:25.306Z,13.03
2022-11-28T21:15:53.425Z,12.23
2022-11-28T21:18:20.877Z,12.70
2022-11-28T21:20:49.667Z,13.07
2022-11-28T21:23:17.855Z,12.13
2022-11-28T21:25:45.398Z,11.83
2022-11-28T21:28:13.344Z,12.83
2022-11-28T21:30:42.499Z,13.43
2022-11-28T21:33:10.227Z,13.67
2022-11-28T21:35:38.071Z,13.97
2022-11-28T21:38:06.969Z,12.37
2022-11-28T21:40:34.780Z,12.93
2022-11-28T21:43:02.442Z,13.20
2022-11-28T21:45:29.921Z,13.23
2022-11-28T21:47:57.355Z,13.33
2022-11-28T21:50:24.962Z,13.43
2022-11-28T21:52:52.581Z,12.53
2022-11-28T21:55:21.517Z,12.47
2022-11-28T21:57:48.890Z,13.10
2022-11-28T22:00:45.577Z,13.07
2022-11-28T22:03:09.417Z,12.80
2022-11-28T22:05:40.076Z,13.43
2022-11-28T22:08:07.493Z,13.80
2022-11-28T22:10:37.847Z,13.30
2022-11-28T22:13:05.347Z,13.50
2022-11-28T22:15:32.764Z,12.07
2022-11-28T22:18:00.323Z,12.37
2022-11-28T22:20:27.733Z,12.53
2022-11-28T22:22:55.258Z,14.00
2022-11-28T22:25:22.717Z,12.93
2022-11-28T22:27:51.455Z,11.80
2022-11-28T22:30:18.900Z,12.20
2022-11-28T22:32:46.357Z,12.80
2022-11-28T22:35:13.765Z,12.57
2022-11-28T22:37:41.196Z,13.53
2022-11-28T22:40:09.271Z,13.10
2022-11-28T22:42:36.815Z,11.97
2022-11-28T22:45:05.964Z,13.00
2022-11-28T22:47:33.673Z,13.57
2022-11-28T22:50:01.078Z,13.63
2022-11-28T22:52:28.612Z,11.20
2022-11-28T22:54:56.199Z,11.37
2022-11-28T22:57:23.783Z,12.43
2022-11-28T22:59:52.218Z,12.73
2022-11-28T23:02:21.160Z,10.87
2022-11-28T23:04:48.642Z,12.57
2022-11-28T23:07:16.654Z,14.23
2022-11-28T23:09:44.074Z,12.30
2022-11-28T23:12:11.636Z,13.67
2022-11-28T23:14:39.063Z,11.33
2022-11-28T23:17:06.663Z,12.07
2022-11-28T23:19:35.501Z,12.53
2022-11-28T23:22:02.912Z,12.17
2022-11-28T23:24:30.306Z,11.40
2022-11-28T23:26:57.754Z,13.77
2022-11-28T23:29:25.142Z,11.70
2022-11-28T23:31:52.591Z,11.90
2022-11-28T23:34:20.022Z,11.33
2022-11-28T23:36:48.811Z,13.43
2022-11-28T23:39:16.931Z,12.60
2022-11-28T23:41:44.708Z,12.40
2022-11-28T23:44:12.567Z,13.03
2022-11-28T23:46:40.407Z,11.80
2022-11-28T23:49:07.881Z,11.63
2022-11-28T23:51:35.488Z,11.97
2022-11-28T23:54:04.495Z,11.70
2022-11-28T23:56:34.932Z,12.33
2022-11-28T23:59:03.202Z,11.20
